createdAt,value
2017-03-07T00:00:09.926Z,0
2017-03-07T00:01:18.018Z,0
2017-03-07T00:02:26.110Z,0
2017-03-07T00:03:34.196Z,0
2017-03-07T00:04:42.295Z,0
2017-03-07T00:05:50.386Z,0
2017-03-07T00:06:58.472Z,0
2017-03-07T00:08:06.580Z,0
2017-03-07T00:09:14.661Z,0
2017-03-07T00:10:22.749Z,0
2017-03-07T00:11:30.833Z,0
2017-03-07T00:12:38.928Z,0
2017-03-07T00:13:47.017Z,0
2017-03-07T00:14:55.108Z,0
2017-03-07T00:16:03.201Z,0
2017-03-07T00:17:11.298Z,0
2017-03-07T00:18:19.379Z,0
2017-03-07T00:19:27.475Z,0
2017-03-07T00:20:35.573Z,0
2017-03-07T00:21:43.663Z,0
2017-03-07T00:22:51.754Z,0
2017-03-07T00:23:59.849Z,0
2017-03-07T00:25:07.935Z,0
2017-03-07T00:26:16.026Z,0
2017-03-07T00:27:24.111Z,0
2017-03-07T00:28:32.209Z,0
2017-03-07T00:29:40.301Z,0
2017-03-07T00:30:48.388Z,0
2017-03-07T00:31:56.480Z,0
2017-03-07T00:33:04.571Z,0
2017-03-07T00:34:12.657Z,0
2017-03-07T00:35:20.750Z,0
2017-03-07T00:36:28.841Z,0
2017-03-07T00:37:36.927Z,0
2017-03-07T00:38:45.012Z,0
2017-03-07T00:39:53.112Z,0
2017-03-07T00:41:01.200Z,0
2017-03-07T00:42:09.303Z,0
2017-03-07T00:43:17.394Z,0
2017-03-07T00:44:25.482Z,0
2017-03-07T00:45:33.566Z,0
2017-03-07T00:46:41.661Z,0
2017-03-07T00:47:49.749Z,0
2017-03-07T00:48:57.843Z,0
2017-03-07T00:50:05.929Z,0
2017-03-07T00:51:14.020Z,0
2017-03-07T00:52:22.109Z,0
2017-03-07T00:53:30.198Z,0
2017-03-07T00:54:38.285Z,0
2017-03-07T00:55:46.378Z,0
2017-03-07T00:56:54.468Z,0
2017-03-07T00:58:02.558Z,0
2017-03-07T00:59:10.719Z,0
2017-03-07T01:00:18.745Z,0
2017-03-07T01:01:26.836Z,0
2017-03-07T01:02:34.928Z,0
2017-03-07T01:03:43.016Z,0
2017-03-07T01:04:51.105Z,0
2017-03-07T01:05:59.191Z,0
2017-03-07T01:07:07.283Z,0
2017-03-07T01:08:15.378Z,0
2017-03-07T01:09:23.470Z,0
2017-03-07T01:10:31.558Z,0
2017-03-07T01:11:39.650Z,0
2017-03-07T01:12:47.738Z,0
2017-03-07T01:13:55.847Z,0
2017-03-07T01:15:03.925Z,0
2017-03-07T01:16:12.017Z,0
2017-03-07T01:17:20.102Z,0
2017-03-07T01:18:28.193Z,0
2017-03-07T01:19:36.285Z,0
2017-03-07T01:20:44.374Z,0
2017-03-07T01:21:52.465Z,0
2017-03-07T01:23:00.557Z,0
2017-03-07T01:24:08.645Z,0
2017-03-07T01:25:16.736Z,0
2017-03-07T01:26:24.827Z,0
2017-03-07T01:27:32.915Z,0
2017-03-07T01:28:41.056Z,0
2017-03-07T01:29:49.093Z,0
2017-03-07T01:30:57.191Z,0
2017-03-07T01:32:05.276Z,0
2017-03-07T01:33:13.359Z,0
2017-03-07T01:34:21.456Z,0
2017-03-07T01:35:29.542Z,0
2017-03-07T01:36:37.632Z,0
2017-03-07T01:37:45.715Z,0
2017-03-07T01:38:53.807Z,0
2017-03-07T01:40:01.902Z,0
2017-03-07T01:41:09.990Z,0
2017-03-07T01:42:18.077Z,0
2017-03-07T01:43:26.165Z,0
2017-03-07T01:44:34.256Z,0
2017-03-07T01:45:42.413Z,0
2017-03-07T01:46:50.442Z,0
2017-03-07T01:47:58.538Z,0
2017-03-07T01:49:06.622Z,0
2017-03-07T01:50:14.713Z,0
2017-03-07T01:51:22.800Z,0
2017-03-07T01:52:30.888Z,0
2017-03-07T01:53:38.969Z,0
2017-03-07T01:54:47.072Z,0
2017-03-07T01:55:55.160Z,0
2017-03-07T01:57:03.247Z,0
2017-03-07T01:58:11.338Z,0
2017-03-07T01:59:19.425Z,0
2017-03-07T02:00:27.515Z,0
2017-03-07T02:01:35.597Z,0
2017-03-07T02:02:43.713Z,0
2017-03-07T02:03:51.789Z,0
2017-03-07T02:04:59.880Z,0
2017-03-07T02:06:07.969Z,0
2017-03-07T02:07:16.056Z,0
2017-03-07T02:08:24.138Z,0
2017-03-07T02:09:32.228Z,0
2017-03-07T02:10:40.321Z,0
2017-03-07T02:11:48.407Z,0
2017-03-07T02:12:56.496Z,0
2017-03-07T02:14:04.590Z,0
2017-03-07T02:15:12.678Z,0
2017-03-07T02:16:20.765Z,0
2017-03-07T02:17:28.848Z,0
2017-03-07T02:18:36.937Z,0
2017-03-07T02:19:45.033Z,0
2017-03-07T02:20:53.115Z,0
2017-03-07T02:22:01.205Z,0
2017-03-07T02:23:09.299Z,0
2017-03-07T02:24:17.382Z,0
2017-03-07T02:25:25.468Z,0
2017-03-07T02:26:33.558Z,0
2017-03-07T02:27:41.651Z,0
2017-03-07T02:28:49.735Z,0
2017-03-07T02:29:57.829Z,0
2017-03-07T02:31:05.911Z,0
2017-03-07T02:32:13.999Z,0
2017-03-07T02:33:22.088Z,0
2017-03-07T02:34:30.178Z,0
2017-03-07T02:35:38.266Z,0
2017-03-07T02:36:46.352Z,0
2017-03-07T02:37:54.438Z,0
2017-03-07T02:39:02.538Z,0
2017-03-07T02:40:10.633Z,0
2017-03-07T02:41:18.718Z,0
2017-03-07T02:42:26.812Z,0
2017-03-07T02:43:34.897Z,0
2017-03-07T02:44:42.983Z,0
2017-03-07T02:45:51.073Z,0
2017-03-07T02:46:59.166Z,0
2017-03-07T02:48:07.247Z,0
2017-03-07T02:49:15.343Z,0
2017-03-07T02:50:23.432Z,0
2017-03-07T02:51:31.523Z,0
2017-03-07T02:52:39.605Z,0
2017-03-07T02:53:47.695Z,0
2017-03-07T02:54:55.788Z,0
2017-03-07T02:56:03.873Z,0
2017-03-07T02:57:11.967Z,0
2017-03-07T02:58:20.053Z,0
2017-03-07T02:59:28.145Z,0
2017-03-07T03:00:36.227Z,0
2017-03-07T03:01:44.318Z,0
2017-03-07T03:02:52.410Z,0
2017-03-07T03:04:00.500Z,0
2017-03-07T03:05:08.586Z,0
2017-03-07T03:06:16.671Z,0
2017-03-07T03:07:24.754Z,0
2017-03-07T03:08:32.846Z,0
2017-03-07T03:09:40.937Z,0
2017-03-07T03:10:49.022Z,0
2017-03-07T03:11:57.116Z,0
2017-03-07T03:13:05.207Z,0
2017-03-07T03:14:13.307Z,0
2017-03-07T03:15:21.393Z,0
2017-03-07T03:16:29.476Z,0
2017-03-07T03:17:37.573Z,0
2017-03-07T03:18:45.662Z,0
2017-03-07T03:19:53.746Z,0
2017-03-07T03:21:01.843Z,0
2017-03-07T03:22:09.929Z,0
2017-03-07T03:23:18.016Z,0
2017-03-07T03:24:26.100Z,0
2017-03-07T03:25:34.201Z,0
2017-03-07T03:26:42.287Z,0
2017-03-07T03:27:50.422Z,0
2017-03-07T03:28:58.464Z,0
2017-03-07T03:30:06.556Z,0
2017-03-07T03:31:14.639Z,0
2017-03-07T03:32:22.724Z,0
2017-03-07T03:33:30.816Z,0
2017-03-07T03:34:38.984Z,0
2017-03-07T03:35:46.985Z,0
2017-03-07T03:36:55.075Z,0
2017-03-07T03:38:03.168Z,0
2017-03-07T03:39:11.255Z,0
2017-03-07T03:40:19.339Z,0
2017-03-07T03:41:27.438Z,0
2017-03-07T03:42:35.527Z,0
2017-03-07T03:43:43.611Z,0
2017-03-07T03:44:51.705Z,0
2017-03-07T03:45:59.792Z,0
2017-03-07T03:47:07.878Z,0
2017-03-07T03:48:15.967Z,0
2017-03-07T03:49:24.053Z,0
2017-03-07T03:50:32.141Z,0
2017-03-07T03:51:40.225Z,0
2017-03-07T03:52:48.323Z,0
2017-03-07T03:53:56.424Z,0
2017-03-07T03:55:04.505Z,0
2017-03-07T03:56:12.596Z,0
2017-03-07T03:57:20.683Z,0
2017-03-07T03:58:28.769Z,0
2017-03-07T03:59:36.857Z,0
2017-03-07T04:00:44.947Z,0
2017-03-07T04:01:53.034Z,0
2017-03-07T04:03:01.120Z,0
2017-03-07T04:04:09.201Z,0
2017-03-07T04:05:17.299Z,0
2017-03-07T04:06:25.377Z,0
2017-03-07T04:07:33.459Z,0
2017-03-07T04:08:41.551Z,0
2017-03-07T04:09:49.634Z,0
2017-03-07T04:10:57.721Z,0
2017-03-07T04:12:05.813Z,0
2017-03-07T04:13:13.900Z,0
2017-03-07T04:14:22.013Z,0
2017-03-07T04:15:30.071Z,0
2017-03-07T04:16:38.163Z,0
2017-03-07T04:17:46.254Z,0
2017-03-07T04:18:54.335Z,0
2017-03-07T04:20:02.428Z,0
2017-03-07T04:21:10.528Z,0
2017-03-07T04:22:18.612Z,0
2017-03-07T04:23:26.699Z,0
2017-03-07T04:24:34.787Z,0
2017-03-07T04:25:42.871Z,0
2017-03-07T04:26:50.957Z,0
2017-03-07T04:27:59.058Z,0
2017-03-07T04:29:07.135Z,0
2017-03-07T04:30:15.221Z,0
2017-03-07T04:31:23.329Z,0
2017-03-07T04:32:31.402Z,0
2017-03-07T04:33:39.484Z,0
2017-03-07T04:34:47.577Z,0
2017-03-07T04:35:55.669Z,0
2017-03-07T04:37:03.758Z,0
2017-03-07T04:38:11.855Z,0
2017-03-07T04:39:19.935Z,0
2017-03-07T04:40:28.026Z,0
2017-03-07T04:41:36.115Z,0
2017-03-07T04:42:44.199Z,0
2017-03-07T04:43:52.288Z,0
2017-03-07T04:45:00.376Z,0
2017-03-07T04:46:08.459Z,0
2017-03-07T04:47:16.547Z,0
2017-03-07T04:48:24.636Z,0
2017-03-07T04:49:32.730Z,0
2017-03-07T04:50:40.811Z,0
2017-03-07T04:51:48.904Z,0
2017-03-07T04:52:56.986Z,0
2017-03-07T04:54:05.080Z,0
2017-03-07T04:55:13.160Z,0
2017-03-07T04:56:21.254Z,0
2017-03-07T04:57:29.338Z,0
2017-03-07T04:58:37.427Z,0
2017-03-07T04:59:45.518Z,0
2017-03-07T05:00:53.608Z,0
2017-03-07T05:02:01.695Z,0
2017-03-07T05:03:09.788Z,0
2017-03-07T05:04:17.872Z,0
2017-03-07T05:05:25.952Z,0
2017-03-07T05:06:34.045Z,0
2017-03-07T05:07:42.135Z,0
2017-03-07T05:08:50.219Z,0
2017-03-07T05:09:58.300Z,0
2017-03-07T05:11:06.391Z,0
2017-03-07T05:12:14.480Z,0
2017-03-07T05:13:22.569Z,0
2017-03-07T05:14:30.650Z,0
2017-03-07T05:15:38.742Z,0
2017-03-07T05:16:46.840Z,0
2017-03-07T05:17:54.925Z,0
2017-03-07T05:19:03.014Z,0
2017-03-07T05:20:11.101Z,0
2017-03-07T05:21:19.189Z,0
2017-03-07T05:22:27.277Z,0
2017-03-07T05:23:35.365Z,0
2017-03-07T05:24:43.448Z,0
2017-03-07T05:25:51.533Z,0
2017-03-07T05:26:59.620Z,0
2017-03-07T05:28:07.711Z,0
2017-03-07T05:29:15.798Z,0
2017-03-07T05:30:23.883Z,0
2017-03-07T05:31:31.975Z,0
2017-03-07T05:32:40.065Z,0
2017-03-07T05:33:48.149Z,0
2017-03-07T05:34:56.245Z,0
2017-03-07T05:36:04.338Z,0
2017-03-07T05:37:12.415Z,0
2017-03-07T05:38:20.505Z,0
2017-03-07T05:39:28.600Z,0
2017-03-07T05:40:36.686Z,0
2017-03-07T05:41:44.768Z,0
2017-03-07T05:42:52.858Z,0
2017-03-07T05:44:00.947Z,0
2017-03-07T05:45:09.025Z,0
2017-03-07T05:46:17.111Z,0
2017-03-07T05:47:25.199Z,0
2017-03-07T05:48:33.290Z,0
2017-03-07T05:49:41.373Z,0
2017-03-07T05:50:49.463Z,0
2017-03-07T05:51:57.549Z,0
2017-03-07T05:53:05.637Z,0
2017-03-07T05:54:13.720Z,0
2017-03-07T05:55:21.812Z,0
2017-03-07T05:56:29.904Z,0
2017-03-07T05:57:37.985Z,0
2017-03-07T05:58:46.073Z,0
2017-03-07T05:59:54.162Z,4
2017-03-07T06:01:02.244Z,0
2017-03-07T06:02:10.340Z,0
2017-03-07T06:03:18.427Z,0
2017-03-07T06:04:26.515Z,4
2017-03-07T06:05:34.597Z,4
2017-03-07T06:06:42.684Z,0
2017-03-07T06:07:50.774Z,4
2017-03-07T06:08:58.870Z,4
2017-03-07T06:10:06.944Z,4
2017-03-07T06:11:15.030Z,4
2017-03-07T06:12:23.127Z,0
2017-03-07T06:13:31.218Z,0
2017-03-07T06:14:39.306Z,0
2017-03-07T06:15:47.397Z,4
2017-03-07T06:16:55.485Z,4
2017-03-07T06:18:03.608Z,4
2017-03-07T06:19:11.654Z,4
2017-03-07T06:20:19.744Z,4
2017-03-07T06:21:27.831Z,4
2017-03-07T06:22:35.921Z,4
2017-03-07T06:23:44.001Z,4
2017-03-07T06:24:52.091Z,4
2017-03-07T06:26:00.180Z,4
2017-03-07T06:27:08.268Z,4
2017-03-07T06:28:16.356Z,8
2017-03-07T06:29:24.444Z,8
2017-03-07T06:30:32.537Z,8
2017-03-07T06:31:40.621Z,8
2017-03-07T06:32:48.706Z,8
2017-03-07T06:33:56.796Z,4
2017-03-07T06:35:04.888Z,8
2017-03-07T06:36:12.971Z,8
2017-03-07T06:37:21.058Z,12
2017-03-07T06:38:29.149Z,12
2017-03-07T06:39:37.238Z,12
2017-03-07T06:40:45.328Z,8
2017-03-07T06:41:53.414Z,12
2017-03-07T06:43:01.506Z,8
2017-03-07T06:44:09.591Z,12
2017-03-07T06:45:17.679Z,12
2017-03-07T06:46:25.768Z,8
2017-03-07T06:47:33.850Z,8
2017-03-07T06:48:41.937Z,12
2017-03-07T06:49:50.029Z,12
2017-03-07T06:50:58.117Z,16
2017-03-07T06:52:06.200Z,16
2017-03-07T06:53:14.286Z,20
2017-03-07T06:54:22.602Z,16
2017-03-07T06:55:30.460Z,12
2017-03-07T06:56:38.540Z,12
2017-03-07T06:57:46.636Z,12
2017-03-07T06:58:54.717Z,12
2017-03-07T07:00:02.803Z,16
2017-03-07T07:01:10.888Z,12
2017-03-07T07:02:19.019Z,12
2017-03-07T07:03:27.112Z,16
2017-03-07T07:04:35.178Z,16
2017-03-07T07:05:43.260Z,20
2017-03-07T07:06:51.351Z,24
2017-03-07T07:07:59.612Z,24
2017-03-07T07:09:07.521Z,24
2017-03-07T07:10:15.625Z,24
2017-03-07T07:11:23.697Z,28
2017-03-07T07:12:31.782Z,28
2017-03-07T07:13:39.971Z,36
2017-03-07T07:14:47.960Z,40
2017-03-07T07:15:56.052Z,40
2017-03-07T07:17:04.136Z,32
2017-03-07T07:18:12.217Z,36
2017-03-07T07:19:20.311Z,32
2017-03-07T07:20:28.394Z,36
2017-03-07T07:21:36.484Z,32
2017-03-07T07:22:44.568Z,36
2017-03-07T07:23:52.659Z,32
2017-03-07T07:25:00.747Z,32
2017-03-07T07:26:08.832Z,28
2017-03-07T07:27:16.922Z,24
2017-03-07T07:28:25.005Z,24
2017-03-07T07:29:33.100Z,20
2017-03-07T07:30:41.180Z,16
2017-03-07T07:31:49.265Z,20
2017-03-07T07:32:57.351Z,24
2017-03-07T07:34:05.480Z,16
2017-03-07T07:35:13.526Z,24
2017-03-07T07:36:21.610Z,24
2017-03-07T07:37:29.698Z,28
2017-03-07T07:38:37.805Z,28
2017-03-07T07:39:45.868Z,28
2017-03-07T07:40:53.963Z,28
2017-03-07T07:42:02.045Z,28
2017-03-07T07:43:10.286Z,32
2017-03-07T07:44:18.214Z,36
2017-03-07T07:45:26.307Z,36
2017-03-07T07:46:34.385Z,32
2017-03-07T07:47:42.476Z,28
2017-03-07T07:48:50.569Z,24
2017-03-07T07:49:58.660Z,24
2017-03-07T07:51:06.750Z,20
2017-03-07T07:52:14.838Z,16
2017-03-07T07:53:22.920Z,16
2017-03-07T07:54:31.011Z,16
2017-03-07T07:55:39.092Z,16
2017-03-07T07:56:47.194Z,16
2017-03-07T07:57:55.303Z,16
2017-03-07T07:59:03.517Z,20
2017-03-07T08:00:11.450Z,20
2017-03-07T08:01:19.533Z,24
2017-03-07T08:02:27.617Z,20
2017-03-07T08:03:35.709Z,24
2017-03-07T08:04:43.793Z,24
2017-03-07T08:05:51.891Z,24
2017-03-07T08:06:59.971Z,28
2017-03-07T08:08:08.061Z,28
2017-03-07T08:09:16.152Z,28
2017-03-07T08:10:24.235Z,28
2017-03-07T08:11:32.320Z,28
2017-03-07T08:12:40.415Z,24
2017-03-07T08:13:48.511Z,28
2017-03-07T08:14:56.596Z,28
2017-03-07T08:16:04.680Z,24
2017-03-07T08:17:12.766Z,20
2017-03-07T08:18:20.854Z,20
2017-03-07T08:19:28.939Z,20
2017-03-07T08:20:37.094Z,16
2017-03-07T08:21:45.117Z,16
2017-03-07T08:22:53.197Z,16
2017-03-07T08:24:01.292Z,16
2017-03-07T08:25:09.377Z,16
2017-03-07T08:26:17.471Z,24
2017-03-07T08:27:25.554Z,24
2017-03-07T08:28:33.643Z,24
2017-03-07T08:29:41.730Z,24
2017-03-07T08:30:49.823Z,20
2017-03-07T08:31:57.910Z,24
2017-03-07T08:33:05.996Z,24
2017-03-07T08:34:14.082Z,24
2017-03-07T08:35:22.171Z,24
2017-03-07T08:36:30.269Z,16
2017-03-07T08:37:38.581Z,20
2017-03-07T08:38:46.440Z,20
2017-03-07T08:39:54.537Z,12
2017-03-07T08:41:02.622Z,12
2017-03-07T08:42:10.707Z,16
2017-03-07T08:43:18.897Z,12
2017-03-07T08:44:26.885Z,12
2017-03-07T08:45:34.967Z,12
2017-03-07T08:46:43.052Z,16
2017-03-07T08:47:51.145Z,16
2017-03-07T08:48:59.237Z,12
2017-03-07T08:50:07.326Z,16
2017-03-07T08:51:15.403Z,16
2017-03-07T08:52:23.491Z,12
2017-03-07T08:53:31.578Z,16
2017-03-07T08:54:39.662Z,16
2017-03-07T08:55:47.751Z,12
2017-03-07T08:56:55.845Z,12
2017-03-07T08:58:03.935Z,16
2017-03-07T08:59:12.026Z,16
2017-03-07T09:00:20.121Z,12
2017-03-07T09:01:28.209Z,12
2017-03-07T09:02:36.300Z,12
2017-03-07T09:03:44.390Z,16
2017-03-07T09:04:52.620Z,28
2017-03-07T09:06:00.574Z,24
2017-03-07T09:07:08.661Z,24
2017-03-07T09:08:16.754Z,28
2017-03-07T09:09:24.840Z,32
2017-03-07T09:10:32.926Z,32
2017-03-07T09:11:41.015Z,36
2017-03-07T09:12:49.107Z,28
2017-03-07T09:13:57.188Z,32
2017-03-07T09:15:05.277Z,40
2017-03-07T09:16:13.364Z,44
2017-03-07T09:17:21.455Z,40
2017-03-07T09:18:29.538Z,40
2017-03-07T09:19:37.631Z,52
2017-03-07T09:20:45.720Z,56
2017-03-07T09:21:53.808Z,56
2017-03-07T09:23:01.897Z,60
2017-03-07T09:24:10.084Z,60
2017-03-07T09:25:18.074Z,60
2017-03-07T09:26:26.155Z,56
2017-03-07T09:27:34.251Z,48
2017-03-07T09:28:42.356Z,56
2017-03-07T09:29:50.440Z,56
2017-03-07T09:30:58.534Z,60
2017-03-07T09:32:06.618Z,60
2017-03-07T09:33:14.704Z,52
2017-03-07T09:34:22.795Z,56
2017-03-07T09:35:30.887Z,48
2017-03-07T09:36:38.973Z,48
2017-03-07T09:37:47.116Z,40
2017-03-07T09:38:55.157Z,40
2017-03-07T09:40:03.248Z,40
2017-03-07T09:41:11.336Z,36
2017-03-07T09:42:19.446Z,32
2017-03-07T09:43:27.517Z,32
2017-03-07T09:44:35.617Z,28
2017-03-07T09:45:43.705Z,32
2017-03-07T09:46:51.795Z,24
2017-03-07T09:47:59.890Z,24
2017-03-07T09:49:07.979Z,20
2017-03-07T09:50:16.073Z,20
2017-03-07T09:51:24.166Z,16
2017-03-07T09:52:32.254Z,20
2017-03-07T09:53:40.340Z,16
2017-03-07T09:54:48.430Z,16
2017-03-07T09:55:56.516Z,12
2017-03-07T09:57:04.600Z,12
2017-03-07T09:58:12.692Z,16
2017-03-07T09:59:20.777Z,16
2017-03-07T10:00:28.865Z,24
2017-03-07T10:01:36.949Z,24
2017-03-07T10:02:45.054Z,28
2017-03-07T10:03:53.134Z,28
2017-03-07T10:05:01.224Z,32
2017-03-07T10:06:09.306Z,40
2017-03-07T10:07:17.397Z,44
2017-03-07T10:08:25.486Z,36
2017-03-07T10:09:33.570Z,40
2017-03-07T10:10:41.661Z,40
2017-03-07T10:11:49.752Z,44
2017-03-07T10:12:57.841Z,44
2017-03-07T10:14:05.933Z,44
2017-03-07T10:15:14.022Z,44
2017-03-07T10:16:22.108Z,48
2017-03-07T10:17:30.201Z,40
2017-03-07T10:18:38.287Z,40
2017-03-07T10:19:46.382Z,44
2017-03-07T10:20:54.466Z,44
2017-03-07T10:22:02.552Z,36
2017-03-07T10:23:10.647Z,40
2017-03-07T10:24:18.728Z,36
2017-03-07T10:25:26.824Z,32
2017-03-07T10:26:34.907Z,36
2017-03-07T10:27:42.998Z,36
2017-03-07T10:28:51.091Z,36
2017-03-07T10:29:59.171Z,32
2017-03-07T10:31:07.263Z,28
2017-03-07T10:32:15.349Z,28
2017-03-07T10:33:23.433Z,28
2017-03-07T10:34:31.525Z,28
2017-03-07T10:35:39.614Z,32
2017-03-07T10:36:47.699Z,36
2017-03-07T10:37:55.788Z,36
2017-03-07T10:39:03.875Z,44
2017-03-07T10:40:11.969Z,56
2017-03-07T10:41:20.052Z,60
2017-03-07T10:42:28.141Z,56
2017-03-07T10:43:36.254Z,44
2017-03-07T10:44:44.324Z,60
2017-03-07T10:45:52.409Z,60
2017-03-07T10:47:00.497Z,56
2017-03-07T10:48:08.577Z,60
2017-03-07T10:49:16.700Z,52
2017-03-07T10:50:24.759Z,60
2017-03-07T10:51:32.851Z,64
2017-03-07T10:52:40.942Z,56
2017-03-07T10:53:49.032Z,52
2017-03-07T10:54:57.116Z,56
2017-03-07T10:56:05.200Z,56
2017-03-07T10:57:13.286Z,60
2017-03-07T10:58:21.378Z,56
2017-03-07T10:59:29.461Z,56
2017-03-07T11:00:37.549Z,72
2017-03-07T11:01:45.639Z,56
2017-03-07T11:02:53.733Z,68
2017-03-07T11:04:01.824Z,64
2017-03-07T11:05:09.903Z,60
2017-03-07T11:06:18.009Z,48
2017-03-07T11:07:26.091Z,44
2017-03-07T11:08:34.176Z,56
2017-03-07T11:09:42.265Z,52
2017-03-07T11:10:50.354Z,56
2017-03-07T11:11:58.437Z,56
2017-03-07T11:13:06.523Z,64
2017-03-07T11:14:14.614Z,56
2017-03-07T11:15:22.699Z,56
2017-03-07T11:16:30.782Z,56
2017-03-07T11:17:38.876Z,56
2017-03-07T11:18:46.965Z,68
2017-03-07T11:19:55.056Z,52
2017-03-07T11:21:03.138Z,48
2017-03-07T11:22:11.235Z,44
2017-03-07T11:23:19.321Z,52
2017-03-07T11:24:27.411Z,48
2017-03-07T11:25:35.506Z,52
2017-03-07T11:26:43.591Z,48
2017-03-07T11:27:51.685Z,44
2017-03-07T11:28:59.767Z,40
2017-03-07T11:30:07.855Z,36
2017-03-07T11:31:15.942Z,36
2017-03-07T11:32:24.026Z,36
2017-03-07T11:33:32.120Z,40
2017-03-07T11:34:40.206Z,40
2017-03-07T11:35:48.294Z,40
2017-03-07T11:36:56.387Z,40
2017-03-07T11:38:04.469Z,40
2017-03-07T11:39:12.564Z,36
2017-03-07T11:40:20.650Z,36
2017-03-07T11:41:28.743Z,36
2017-03-07T11:42:36.838Z,44
2017-03-07T11:43:44.927Z,44
2017-03-07T11:44:53.157Z,44
2017-03-07T11:46:01.325Z,44
2017-03-07T11:47:09.184Z,48
2017-03-07T11:48:17.276Z,44
2017-03-07T11:49:25.370Z,40
2017-03-07T11:50:33.452Z,44
2017-03-07T11:51:41.538Z,52
2017-03-07T11:52:49.631Z,44
2017-03-07T11:53:57.717Z,52
2017-03-07T11:55:05.805Z,44
2017-03-07T11:56:13.887Z,48
2017-03-07T11:57:21.988Z,44
2017-03-07T11:58:30.684Z,48
2017-03-07T11:59:38.158Z,40
2017-03-07T12:00:46.261Z,48
2017-03-07T12:01:54.343Z,56
2017-03-07T12:03:02.428Z,44
2017-03-07T12:04:10.525Z,48
2017-03-07T12:05:18.810Z,56
2017-03-07T12:06:26.716Z,80
2017-03-07T12:07:34.952Z,56
2017-03-07T12:08:42.887Z,56
2017-03-07T12:09:50.975Z,68
2017-03-07T12:10:59.062Z,60
2017-03-07T12:12:07.302Z,84
2017-03-07T12:13:15.450Z,80
2017-03-07T12:14:23.342Z,84
2017-03-07T12:15:31.428Z,80
2017-03-07T12:16:39.518Z,76
2017-03-07T12:17:47.606Z,64
2017-03-07T12:18:55.873Z,44
2017-03-07T12:20:03.783Z,36
2017-03-07T12:21:11.873Z,32
2017-03-07T12:22:21.552Z,24
2017-03-07T12:23:28.050Z,32
2017-03-07T12:24:36.142Z,44
2017-03-07T12:25:44.226Z,36
2017-03-07T12:26:52.310Z,36
2017-03-07T12:28:00.599Z,44
2017-03-07T12:29:08.491Z,44
2017-03-07T12:30:16.575Z,56
2017-03-07T12:31:24.663Z,52
2017-03-07T12:32:32.918Z,48
2017-03-07T12:33:41.020Z,52
2017-03-07T12:34:48.933Z,48
2017-03-07T12:35:57.022Z,52
2017-03-07T12:37:05.121Z,48
2017-03-07T12:38:13.479Z,36
2017-03-07T12:39:21.590Z,44
2017-03-07T12:40:29.386Z,40
2017-03-07T12:41:37.820Z,28
2017-03-07T12:42:45.565Z,36
2017-03-07T12:43:53.803Z,40
2017-03-07T12:45:01.741Z,40
2017-03-07T12:46:09.829Z,44
2017-03-07T12:47:17.913Z,36
2017-03-07T12:48:26.006Z,36
2017-03-07T12:49:34.135Z,32
2017-03-07T12:50:42.184Z,32
2017-03-07T12:51:50.280Z,28
2017-03-07T12:52:58.505Z,28
2017-03-07T12:54:06.458Z,20
2017-03-07T12:55:14.539Z,24
2017-03-07T12:56:22.788Z,20
2017-03-07T12:57:30.727Z,24
2017-03-07T12:58:38.979Z,20
2017-03-07T12:59:47.061Z,20
2017-03-07T13:00:55.108Z,24
2017-03-07T13:02:03.252Z,28
2017-03-07T13:03:11.170Z,32
2017-03-07T13:04:19.255Z,36
2017-03-07T13:05:27.344Z,36
2017-03-07T13:06:35.434Z,36
2017-03-07T13:07:43.520Z,32
2017-03-07T13:08:51.616Z,36
2017-03-07T13:09:59.698Z,36
2017-03-07T13:11:07.786Z,44
2017-03-07T13:12:15.880Z,44
2017-03-07T13:13:23.968Z,44
2017-03-07T13:14:32.096Z,44
2017-03-07T13:15:40.145Z,44
2017-03-07T13:16:48.239Z,40
2017-03-07T13:17:56.338Z,36
2017-03-07T13:19:04.429Z,44
2017-03-07T13:20:12.515Z,48
2017-03-07T13:21:20.611Z,48
2017-03-07T13:22:28.692Z,56
2017-03-07T13:23:36.784Z,52
2017-03-07T13:24:45.039Z,52
2017-03-07T13:25:52.954Z,44
2017-03-07T13:27:01.322Z,56
2017-03-07T13:28:09.294Z,48
2017-03-07T13:29:17.391Z,40
2017-03-07T13:30:25.329Z,44
2017-03-07T13:31:33.417Z,40
2017-03-07T13:32:41.520Z,44
2017-03-07T13:33:49.607Z,64
2017-03-07T13:34:57.801Z,52
2017-03-07T13:36:05.797Z,44
2017-03-07T13:37:13.884Z,40
2017-03-07T13:38:21.972Z,28
2017-03-07T13:39:30.064Z,28
2017-03-07T13:40:38.152Z,28
2017-03-07T13:41:46.304Z,28
2017-03-07T13:42:54.324Z,24
2017-03-07T13:44:02.416Z,24
2017-03-07T13:45:10.709Z,20
2017-03-07T13:46:18.593Z,20
2017-03-07T13:47:26.843Z,20
2017-03-07T13:48:34.777Z,24
2017-03-07T13:49:43.044Z,24
2017-03-07T13:50:51.108Z,24
2017-03-07T13:51:59.044Z,20
2017-03-07T13:53:07.267Z,16
2017-03-07T13:54:15.225Z,20
2017-03-07T13:55:23.518Z,20
2017-03-07T13:56:31.411Z,24
2017-03-07T13:57:39.500Z,32
2017-03-07T13:58:47.590Z,36
2017-03-07T13:59:55.681Z,44
2017-03-07T14:01:03.766Z,40
2017-03-07T14:02:12.026Z,44
2017-03-07T14:03:19.959Z,68
2017-03-07T14:04:28.055Z,64
2017-03-07T14:05:36.148Z,44
2017-03-07T14:06:44.243Z,44
2017-03-07T14:07:52.720Z,40
2017-03-07T14:09:00.788Z,44
2017-03-07T14:10:08.775Z,36
2017-03-07T14:11:16.881Z,32
2017-03-07T14:12:24.904Z,36
2017-03-07T14:13:33.058Z,32
2017-03-07T14:14:40.922Z,32
2017-03-07T14:15:49.470Z,28
2017-03-07T14:16:57.744Z,32
2017-03-07T14:18:05.433Z,32
2017-03-07T14:19:13.667Z,24
2017-03-07T14:20:21.534Z,24
2017-03-07T14:21:29.782Z,20
2017-03-07T14:22:38.157Z,24
2017-03-07T14:23:45.949Z,20
2017-03-07T14:24:53.874Z,24
2017-03-07T14:26:02.084Z,24
2017-03-07T14:27:09.939Z,24
2017-03-07T14:28:18.363Z,24
2017-03-07T14:29:26.522Z,20
2017-03-07T14:30:34.357Z,24
2017-03-07T14:31:42.652Z,24
2017-03-07T14:32:50.651Z,24
2017-03-07T14:33:58.618Z,24
2017-03-07T14:35:06.705Z,24
2017-03-07T14:36:14.747Z,20
2017-03-07T14:37:22.802Z,20
2017-03-07T14:38:30.972Z,24
2017-03-07T14:39:38.956Z,28
2017-03-07T14:40:47.252Z,28
2017-03-07T14:41:55.325Z,32
2017-03-07T14:43:03.575Z,36
2017-03-07T14:44:11.545Z,32
2017-03-07T14:45:19.372Z,28
2017-03-07T14:46:27.505Z,32
2017-03-07T14:47:35.699Z,28
2017-03-07T14:48:43.931Z,24
2017-03-07T14:49:51.862Z,24
2017-03-07T14:50:59.771Z,24
2017-03-07T14:52:08.122Z,24
2017-03-07T14:53:16.258Z,24
2017-03-07T14:54:24.288Z,28
2017-03-07T14:55:32.431Z,28
2017-03-07T14:56:40.593Z,40
2017-03-07T14:57:48.583Z,28
2017-03-07T14:58:56.710Z,28
2017-03-07T15:00:05.144Z,28
2017-03-07T15:01:12.575Z,28
2017-03-07T15:02:20.979Z,24
2017-03-07T15:03:29.150Z,20
2017-03-07T15:04:37.447Z,20
2017-03-07T15:05:44.925Z,20
2017-03-07T15:06:53.000Z,28
2017-03-07T15:08:01.089Z,36
2017-03-07T15:09:09.172Z,36
2017-03-07T15:10:17.260Z,48
2017-03-07T15:11:25.352Z,52
2017-03-07T15:12:33.444Z,48
2017-03-07T15:13:41.537Z,52
2017-03-07T15:14:49.620Z,56
2017-03-07T15:15:57.714Z,64
2017-03-07T15:17:05.799Z,64
2017-03-07T15:18:13.894Z,76
2017-03-07T15:19:21.985Z,28
2017-03-07T15:20:30.075Z,36
2017-03-07T15:21:38.174Z,20
2017-03-07T15:22:46.266Z,20
2017-03-07T15:23:54.355Z,16
2017-03-07T15:25:02.447Z,16
2017-03-07T15:26:10.540Z,16
2017-03-07T15:27:18.625Z,20
2017-03-07T15:28:26.718Z,20
2017-03-07T15:29:34.887Z,16
2017-03-07T15:30:42.904Z,12
2017-03-07T15:31:50.988Z,12
2017-03-07T15:32:59.077Z,12
2017-03-07T15:34:07.168Z,12
2017-03-07T15:35:15.271Z,16
2017-03-07T15:36:23.357Z,12
2017-03-07T15:37:31.447Z,12
2017-03-07T15:38:39.540Z,12
2017-03-07T15:39:47.626Z,12
2017-03-07T15:40:55.710Z,16
2017-03-07T15:42:03.804Z,12
2017-03-07T15:43:11.898Z,12
2017-03-07T15:44:19.984Z,12
2017-03-07T15:45:28.071Z,8
2017-03-07T15:46:36.163Z,8
2017-03-07T15:47:44.249Z,4
2017-03-07T15:48:52.334Z,8
2017-03-07T15:50:00.437Z,8
2017-03-07T15:51:08.519Z,4
2017-03-07T15:52:16.606Z,8
2017-03-07T15:53:24.703Z,8
2017-03-07T15:54:32.798Z,4
2017-03-07T15:55:40.891Z,4
2017-03-07T15:56:48.976Z,4
2017-03-07T15:57:57.069Z,0
2017-03-07T15:59:05.159Z,0
2017-03-07T16:00:13.243Z,0
2017-03-07T16:01:21.340Z,0
2017-03-07T16:02:29.427Z,4
2017-03-07T16:03:37.511Z,4
2017-03-07T16:04:45.605Z,4
2017-03-07T16:05:53.697Z,4
2017-03-07T16:07:01.788Z,4
2017-03-07T16:08:09.879Z,4
2017-03-07T16:09:17.965Z,4
2017-03-07T16:10:26.053Z,4
2017-03-07T16:11:34.137Z,4
2017-03-07T16:12:42.225Z,4
2017-03-07T16:13:50.499Z,4
2017-03-07T16:14:58.405Z,4
2017-03-07T16:16:06.489Z,0
2017-03-07T16:17:14.586Z,4
2017-03-07T16:18:22.932Z,8
2017-03-07T16:19:30.931Z,12
2017-03-07T16:21:46.968Z,16
2017-03-07T16:22:55.054Z,16
2017-03-07T16:24:03.286Z,12
2017-03-07T16:25:11.229Z,12
2017-03-07T16:26:19.470Z,12
2017-03-07T16:27:27.397Z,8